createdAt,value
2023-03-04T00:01:09.587Z,10.50
2023-03-04T00:03:38.745Z,10.43
2023-03-04T00:06:08.620Z,10.32
2023-03-04T00:08:38.295Z,10.93
2023-03-04T00:11:08.958Z,10.18
2023-03-04T00:13:38.138Z,10.20
2023-03-04T00:16:08.106Z,11.02
2023-03-04T00:18:37.374Z,10.68
2023-03-04T00:21:06.842Z,9.90
2023-03-04T00:23:36.084Z,10.32
2023-03-04T00:26:05.391Z,9.88
2023-03-04T00:28:36.062Z,10.27
2023-03-04T00:31:05.447Z,9.25
2023-03-04T00:33:35.067Z,9.93
2023-03-04T00:36:04.841Z,9.75
2023-03-04T00:38:34.065Z,9.48
2023-03-04T00:41:04.837Z,9.65
2023-03-04T00:43:35.612Z,10.45
2023-03-04T00:46:04.927Z,9.23
2023-03-04T00:48:34.063Z,9.40
2023-03-04T00:51:03.215Z,9.00
2023-03-04T00:53:32.415Z,9.93
2023-03-04T00:56:01.722Z,9.80
2023-03-04T00:58:30.913Z,9.23
2023-03-04T01:01:02.220Z,9.80
2023-03-04T01:03:32.907Z,9.88
2023-03-04T01:06:02.207Z,8.73
2023-03-04T01:08:31.421Z,9.73
2023-03-04T01:11:00.690Z,9.38
2023-03-04T01:13:29.916Z,9.27
2023-03-04T01:15:59.228Z,9.10
2023-03-04T01:18:29.843Z,9.50
2023-03-04T01:20:59.254Z,9.38
2023-03-04T01:23:28.412Z,8.82
2023-03-04T01:25:57.817Z,9.60
2023-03-04T01:28:27.661Z,9.20
2023-03-04T01:30:56.868Z,8.93
2023-03-04T01:33:26.204Z,9.40
2023-03-04T01:35:57.251Z,9.40
2023-03-04T01:38:28.177Z,10.25
2023-03-04T01:40:57.497Z,9.35
2023-03-04T01:43:28.732Z,9.75
2023-03-04T01:46:00.069Z,9.35
2023-03-04T01:48:34.185Z,9.48
2023-03-04T01:51:05.421Z,9.63
2023-03-04T01:53:35.225Z,9.70
2023-03-04T01:56:13.872Z,9.38
2023-03-04T01:58:44.133Z,9.57
2023-03-04T02:01:13.887Z,8.88
2023-03-04T02:03:43.241Z,8.95
2023-03-04T02:06:14.011Z,9.45
2023-03-04T02:08:43.210Z,9.20
2023-03-04T02:11:12.545Z,9.05
2023-03-04T02:13:41.689Z,8.82
2023-03-04T02:16:11.129Z,9.50
2023-03-04T02:18:40.703Z,9.45
2023-03-04T02:21:16.750Z,9.35
2023-03-04T02:23:51.258Z,9.68
2023-03-04T02:26:24.592Z,9.05
2023-03-04T02:28:57.747Z,8.45
2023-03-04T02:31:31.476Z,9.38
2023-03-04T02:34:02.922Z,9.07
2023-03-04T02:36:33.127Z,8.77
2023-03-04T02:39:06.737Z,9.07
2023-03-04T02:41:37.910Z,9.40
2023-03-04T02:44:18.324Z,9.15
2023-03-04T02:46:48.185Z,9.57
2023-03-04T02:49:17.998Z,10.15
2023-03-04T02:51:47.365Z,9.75
2023-03-04T02:54:19.743Z,9.35
2023-03-04T02:56:52.176Z,9.00
2023-03-04T02:59:24.176Z,9.30
2023-03-04T03:01:54.403Z,8.63
2023-03-04T03:04:25.160Z,9.13
2023-03-04T03:06:56.485Z,9.00
2023-03-04T03:09:26.979Z,8.95
2023-03-04T03:11:57.648Z,9.65
2023-03-04T03:14:27.057Z,8.98
2023-03-04T03:16:56.812Z,9.57
2023-03-04T03:19:26.074Z,9.10
2023-03-04T03:21:56.651Z,9.27
2023-03-04T03:24:25.834Z,9.05
2023-03-04T03:26:56.487Z,9.25
2023-03-04T03:29:26.318Z,9.07
2023-03-04T03:31:57.254Z,9.48
2023-03-04T03:34:26.630Z,8.95
2023-03-04T03:36:55.865Z,8.52
2023-03-04T03:39:24.985Z,9.18
2023-03-04T03:41:54.146Z,9.43
2023-03-04T03:44:24.740Z,9.02
2023-03-04T03:46:53.937Z,9.10
2023-03-04T03:49:23.149Z,8.98
2023-03-04T03:51:52.377Z,9.00
2023-03-04T03:54:21.652Z,9.27
2023-03-04T03:56:50.877Z,9.77
2023-03-04T03:59:20.109Z,9.05
2023-03-04T04:01:51.097Z,9.40
2023-03-04T04:04:20.499Z,9.80
2023-03-04T04:06:49.714Z,9.15
2023-03-04T04:09:18.935Z,9.63
2023-03-04T04:11:48.135Z,9.93
2023-03-04T04:14:17.365Z,9.43
2023-03-04T04:16:46.682Z,9.30
2023-03-04T04:19:21.327Z,9.50
2023-03-04T04:21:50.848Z,9.80
2023-03-04T04:24:20.937Z,10.38
2023-03-04T04:26:50.159Z,10.32
2023-03-04T04:29:19.315Z,9.25
2023-03-04T04:31:48.516Z,9.98
2023-03-04T04:34:19.243Z,9.27
2023-03-04T04:36:48.617Z,9.68
2023-03-04T04:39:18.223Z,9.13
2023-03-04T04:41:48.046Z,9.45
2023-03-04T04:44:17.304Z,9.88
2023-03-04T04:46:46.567Z,9.18
2023-03-04T04:49:15.762Z,10.50
2023-03-04T04:51:46.295Z,9.52
2023-03-04T04:54:15.832Z,9.60
2023-03-04T04:56:45.099Z,9.27
2023-03-04T04:59:14.358Z,9.77
2023-03-04T05:01:43.704Z,9.60
2023-03-04T05:04:12.843Z,10.07
2023-03-04T05:06:42.099Z,8.90
2023-03-04T05:09:13.664Z,9.68
2023-03-04T05:11:43.160Z,9.50
2023-03-04T05:14:12.436Z,9.73
2023-03-04T05:16:41.638Z,9.57
2023-03-04T05:19:11.254Z,9.52
2023-03-04T05:21:40.441Z,8.98
2023-03-04T05:24:09.890Z,8.88
2023-03-04T05:26:40.531Z,9.68
2023-03-04T05:29:09.749Z,9.65
2023-03-04T05:31:38.939Z,9.43
2023-03-04T05:34:08.207Z,9.15
2023-03-04T05:36:37.457Z,9.55
2023-03-04T05:39:06.653Z,9.80
2023-03-04T05:41:35.909Z,9.13
2023-03-04T05:44:06.853Z,8.95
2023-03-04T05:46:36.264Z,9.65
2023-03-04T05:49:05.452Z,9.48
2023-03-04T05:51:34.659Z,9.15
2023-03-04T05:54:03.880Z,8.82
2023-03-04T05:56:33.676Z,9.00
2023-03-04T05:59:02.847Z,8.30
2023-03-04T06:01:33.484Z,9.90
2023-03-04T06:04:02.731Z,10.07
2023-03-04T06:06:32.087Z,12.75
2023-03-04T06:09:01.479Z,17.08
2023-03-04T06:11:30.740Z,19.92
2023-03-04T06:13:59.966Z,21.65
2023-03-04T06:16:29.297Z,22.70
2023-03-04T06:19:00.046Z,25.13
2023-03-04T06:21:29.309Z,24.15
2023-03-04T06:23:58.512Z,22.85
2023-03-04T06:26:27.775Z,21.48
2023-03-04T06:28:57.275Z,17.83
2023-03-04T06:31:26.628Z,17.27
2023-03-04T06:33:56.004Z,17.42
2023-03-04T06:36:26.823Z,18.10
2023-03-04T06:38:56.019Z,19.08
2023-03-04T06:41:25.160Z,17.27
2023-03-04T06:43:55.580Z,16.48
2023-03-04T06:46:25.224Z,16.45
2023-03-04T06:48:54.546Z,14.90
2023-03-04T06:51:23.721Z,14.15
2023-03-04T06:53:54.463Z,14.27
2023-03-04T06:56:23.809Z,12.80
2023-03-04T06:58:53.065Z,15.13
2023-03-04T07:01:24.877Z,14.88
2023-03-04T07:03:55.281Z,12.73
2023-03-04T07:06:26.824Z,12.13
2023-03-04T07:08:58.332Z,12.75
2023-03-04T07:11:27.847Z,12.93
2023-03-04T07:13:57.160Z,11.98
2023-03-04T07:16:26.449Z,12.35
2023-03-04T07:18:55.706Z,11.43
2023-03-04T07:21:24.970Z,12.35
2023-03-04T07:23:54.223Z,11.50
2023-03-04T07:26:25.013Z,11.15
2023-03-04T07:28:54.804Z,11.52
2023-03-04T07:31:27.747Z,10.90
2023-03-04T07:33:59.641Z,11.40
2023-03-04T07:36:30.195Z,10.77
2023-03-04T07:38:59.430Z,11.45
2023-03-04T07:41:31.131Z,11.05
2023-03-04T07:44:00.926Z,10.95
2023-03-04T07:46:30.434Z,10.75
2023-03-04T07:48:59.695Z,11.05
2023-03-04T07:51:29.465Z,11.15
2023-03-04T07:54:01.732Z,10.43
2023-03-04T07:56:34.310Z,10.80
2023-03-04T07:59:03.879Z,21.58
2023-03-04T08:01:35.526Z,13.85
2023-03-04T08:04:05.321Z,15.23
2023-03-04T08:06:35.297Z,16.13
2023-03-04T08:09:07.183Z,17.05
2023-03-04T08:11:39.735Z,19.35
2023-03-04T08:14:09.460Z,22.15
2023-03-04T08:16:39.237Z,21.80
2023-03-04T08:19:08.810Z,19.70
2023-03-04T08:21:38.195Z,18.50
2023-03-04T08:24:09.377Z,18.27
2023-03-04T08:26:42.820Z,18.42
2023-03-04T08:29:14.417Z,17.80
2023-03-04T08:31:46.815Z,19.27
2023-03-04T08:34:18.543Z,17.48
2023-03-04T08:36:47.938Z,17.48
2023-03-04T08:39:19.293Z,17.70
2023-03-04T08:41:50.740Z,17.90
2023-03-04T08:44:20.075Z,17.17
2023-03-04T08:46:49.435Z,16.50
2023-03-04T08:49:18.785Z,17.13
2023-03-04T08:51:48.480Z,19.20
2023-03-04T08:54:17.737Z,18.67
2023-03-04T08:56:47.486Z,18.48
2023-03-04T08:59:18.173Z,17.75
2023-03-04T09:01:47.891Z,19.00
2023-03-04T09:04:17.325Z,16.88
2023-03-04T09:06:46.729Z,17.23
2023-03-04T09:09:15.955Z,17.23
2023-03-04T09:11:45.940Z,16.92
2023-03-04T09:14:15.354Z,16.90
2023-03-04T09:16:46.354Z,15.32
2023-03-04T09:19:15.640Z,15.40
2023-03-04T09:21:47.221Z,16.08
2023-03-04T09:24:16.685Z,15.23
2023-03-04T09:26:46.111Z,14.57
2023-03-04T09:29:15.294Z,14.48
2023-03-04T09:31:45.980Z,13.93
2023-03-04T09:34:15.439Z,13.45
2023-03-04T09:36:45.078Z,14.50
2023-03-04T09:39:14.530Z,13.25
2023-03-04T09:41:47.171Z,13.82
2023-03-04T09:44:24.245Z,13.70
2023-03-04T09:46:58.873Z,13.48
2023-03-04T09:49:28.939Z,13.10
2023-03-04T09:52:03.901Z,13.23
2023-03-04T09:54:52.110Z,13.63
2023-03-04T09:57:29.422Z,12.65
2023-03-04T10:00:20.090Z,12.35
2023-03-04T10:03:06.902Z,12.27
2023-03-04T10:05:40.671Z,13.20
2023-03-04T10:08:28.711Z,11.98
2023-03-04T10:11:00.377Z,12.40
2023-03-04T10:13:37.085Z,11.18
2023-03-04T10:16:08.297Z,11.20
2023-03-04T10:18:50.249Z,11.50
2023-03-04T10:21:27.052Z,11.13
2023-03-04T10:23:59.871Z,11.10
2023-03-04T10:26:33.883Z,11.13
2023-03-04T10:29:07.216Z,11.43
2023-03-04T10:31:38.395Z,10.70
2023-03-04T10:34:11.928Z,10.88
2023-03-04T10:36:53.800Z,11.38
2023-03-04T10:39:27.929Z,11.02
2023-03-04T10:42:00.626Z,10.65
2023-03-04T10:44:31.526Z,9.88
2023-03-04T10:47:00.864Z,9.82
2023-03-04T10:49:33.341Z,8.90
2023-03-04T10:52:05.603Z,9.43
2023-03-04T10:54:42.400Z,9.88
2023-03-04T10:57:17.280Z,8.57
2023-03-04T10:59:50.784Z,8.70
2023-03-04T11:02:25.699Z,8.90
2023-03-04T11:04:59.095Z,8.90
2023-03-04T11:07:29.388Z,8.35
2023-03-04T11:10:10.338Z,8.55
2023-03-04T11:12:39.862Z,8.35
2023-03-04T11:15:27.341Z,8.98
2023-03-04T11:17:59.667Z,9.38
2023-03-04T11:20:34.517Z,10.32
2023-03-04T11:23:07.018Z,9.93
2023-03-04T11:25:40.458Z,9.13
2023-03-04T11:28:19.109Z,10.30
2023-03-04T11:30:52.587Z,9.82
2023-03-04T11:33:29.438Z,9.32
2023-03-04T11:36:17.227Z,9.30
2023-03-04T11:38:50.722Z,8.73
2023-03-04T11:41:26.163Z,8.20
2023-03-04T11:43:56.220Z,8.18
2023-03-04T11:47:16.600Z,8.82
2023-03-04T11:50:08.876Z,7.85
2023-03-04T11:52:58.019Z,8.55
2023-03-04T11:55:45.756Z,9.38
2023-03-04T11:58:49.786Z,10.38
2023-03-04T12:01:24.402Z,11.60
2023-03-04T12:04:27.040Z,11.10
2023-03-04T12:07:07.741Z,11.45
2023-03-04T12:09:44.794Z,10.80
2023-03-04T12:12:36.576Z,11.40
2023-03-04T12:15:15.017Z,13.57
2023-03-04T12:18:02.590Z,14.07
2023-03-04T12:20:52.112Z,13.60
2023-03-04T12:23:42.930Z,14.23
2023-03-04T12:26:26.876Z,15.93
2023-03-04T12:29:03.892Z,13.23
2023-03-04T12:31:40.414Z,12.38
2023-03-04T12:34:48.080Z,11.85
2023-03-04T12:37:48.243Z,13.98
2023-03-04T12:40:32.009Z,28.02
2023-03-04T12:43:45.200Z,36.13
2023-03-04T12:46:23.184Z,33.05
2023-03-04T12:49:10.616Z,41.28
2023-03-04T12:51:49.431Z,41.08
2023-03-04T12:54:27.421Z,42.47
2023-03-04T12:57:00.151Z,40.05
2023-03-04T12:59:36.394Z,42.60
2023-03-04T13:02:28.740Z,34.15
2023-03-04T13:05:05.245Z,32.00
2023-03-04T13:07:44.535Z,27.80
2023-03-04T13:10:20.167Z,26.90
2023-03-04T13:12:51.328Z,23.98
2023-03-04T13:15:32.168Z,22.83
2023-03-04T13:18:03.262Z,19.33
2023-03-04T13:20:39.585Z,19.20
2023-03-04T13:23:32.094Z,17.90
2023-03-04T13:26:24.337Z,19.90
2023-03-04T13:29:11.968Z,17.98
2023-03-04T13:32:02.628Z,17.77
2023-03-04T13:34:50.819Z,18.08
2023-03-04T13:37:35.186Z,18.60
2023-03-04T13:40:35.520Z,18.65
2023-03-04T13:43:29.927Z,17.88
2023-03-04T13:45:59.361Z,17.52
2023-03-04T13:48:36.577Z,16.75
2023-03-04T13:51:06.312Z,16.25
2023-03-04T13:53:41.485Z,15.88
2023-03-04T13:56:30.172Z,15.45
2023-03-04T13:59:20.512Z,14.88
2023-03-04T14:02:15.172Z,14.48
2023-03-04T14:04:48.066Z,13.73
2023-03-04T14:07:25.786Z,13.93
2023-03-04T14:09:57.800Z,13.02
2023-03-04T14:12:29.279Z,12.63
2023-03-04T14:15:01.672Z,11.73
2023-03-04T14:17:33.760Z,11.98
2023-03-04T14:20:06.797Z,12.38
2023-03-04T14:22:41.916Z,11.20
2023-03-04T14:25:23.926Z,11.57
2023-03-04T14:28:04.968Z,11.35
2023-03-04T14:30:42.550Z,11.10
2023-03-04T14:33:26.768Z,10.38
2023-03-04T14:36:13.420Z,10.82
2023-03-04T14:42:33.312Z,10.93
2023-03-04T14:45:04.282Z,9.98
2023-03-04T14:47:38.300Z,10.70
2023-03-04T14:50:09.444Z,9.73
2023-03-04T14:52:42.700Z,10.60
2023-03-04T14:55:24.770Z,9.90
2023-03-04T14:57:59.551Z,10.23
2023-03-04T15:00:32.836Z,10.07
2023-03-04T15:03:03.375Z,10.27
2023-03-04T15:05:34.970Z,24.52
2023-03-04T15:08:08.134Z,24.08
2023-03-04T15:10:38.779Z,22.55
2023-03-04T15:13:09.936Z,23.23
2023-03-04T15:15:42.741Z,18.65
2023-03-04T15:18:23.069Z,19.85
2023-03-04T15:21:01.060Z,16.63
2023-03-04T15:23:35.198Z,17.05
2023-03-04T15:26:10.302Z,14.90
2023-03-04T15:28:41.988Z,16.02
2023-03-04T15:31:18.976Z,15.18
2023-03-04T15:33:48.726Z,14.82
2023-03-04T15:36:20.632Z,13.80
2023-03-04T15:38:53.560Z,13.02
2023-03-04T15:41:26.538Z,13.05
2023-03-04T15:43:57.443Z,12.13
2023-03-04T15:46:27.143Z,13.38
2023-03-04T15:48:56.363Z,12.70
2023-03-04T15:51:26.420Z,10.70
2023-03-04T15:53:58.927Z,12.18
2023-03-04T15:56:30.594Z,10.73
2023-03-04T15:59:03.892Z,10.40
2023-03-04T16:01:33.253Z,10.63
2023-03-04T16:04:02.597Z,10.30
2023-03-04T16:06:33.920Z,10.43
2023-03-04T16:09:08.221Z,10.00
2023-03-04T16:11:44.561Z,9.82
2023-03-04T16:14:14.621Z,9.68
2023-03-04T16:16:44.521Z,9.40
2023-03-04T16:19:13.669Z,9.65
2023-03-04T16:21:43.054Z,8.35
2023-03-04T16:24:19.136Z,9.63
2023-03-04T16:26:49.646Z,9.02
2023-03-04T16:29:35.040Z,9.13
2023-03-04T16:32:04.590Z,8.65
2023-03-04T16:34:34.103Z,8.80
2023-03-04T16:37:08.181Z,8.85
2023-03-04T16:39:39.320Z,8.27
2023-03-04T16:42:14.609Z,9.00
2023-03-04T16:44:44.073Z,8.55
2023-03-04T16:47:13.366Z,8.45
2023-03-04T16:49:42.800Z,8.38
2023-03-04T16:52:22.840Z,7.75
2023-03-04T16:54:53.626Z,8.35
2023-03-04T16:57:23.266Z,8.13
2023-03-04T16:59:52.714Z,7.95
2023-03-04T17:02:24.207Z,7.97
2023-03-04T17:04:53.753Z,8.13
2023-03-04T17:07:23.059Z,8.02
2023-03-04T17:09:53.718Z,7.70
2023-03-04T17:12:23.002Z,7.75
2023-03-04T17:14:52.279Z,7.93
2023-03-04T17:17:21.557Z,9.07
2023-03-04T17:19:50.928Z,8.80
2023-03-04T17:22:20.082Z,9.13
2023-03-04T17:24:49.430Z,10.13
2023-03-04T17:27:20.043Z,9.80
2023-03-04T17:29:49.294Z,9.32
2023-03-04T17:32:18.532Z,9.23
2023-03-04T17:34:47.782Z,10.02
2023-03-04T17:37:17.274Z,9.68
2023-03-04T17:39:46.680Z,9.10
2023-03-04T17:42:15.953Z,9.82
2023-03-04T17:44:46.825Z,9.07
2023-03-04T17:47:16.289Z,9.25
2023-03-04T17:49:45.510Z,8.80
2023-03-04T17:52:14.829Z,8.27
2023-03-04T17:54:44.092Z,7.90
2023-03-04T17:57:14.271Z,8.98
2023-03-04T17:59:43.950Z,8.30
2023-03-04T18:02:16.119Z,8.43
2023-03-04T18:04:48.466Z,8.23
2023-03-04T18:07:17.774Z,8.02
2023-03-04T18:09:47.514Z,8.63
2023-03-04T18:12:16.848Z,8.25
2023-03-04T18:14:58.132Z,9.10
2023-03-04T18:17:28.886Z,11.05
2023-03-04T18:19:58.163Z,10.98
2023-03-04T18:22:27.346Z,13.05
2023-03-04T18:24:56.603Z,15.45
2023-03-04T18:27:25.890Z,14.82
2023-03-04T18:29:56.484Z,11.88
2023-03-04T18:32:25.842Z,14.90
2023-03-04T18:34:56.457Z,14.02
2023-03-04T18:37:25.828Z,11.60
2023-03-04T18:39:54.980Z,11.43
2023-03-04T18:42:24.184Z,11.52
2023-03-04T18:44:53.411Z,11.88
2023-03-04T18:47:23.881Z,12.98
2023-03-04T18:49:54.489Z,11.85
2023-03-04T18:52:26.910Z,11.77
2023-03-04T18:54:56.520Z,11.27
2023-03-04T18:57:25.839Z,11.52
2023-03-04T18:59:59.486Z,10.20
2023-03-04T19:02:32.935Z,10.63
2023-03-04T19:05:07.339Z,10.35
2023-03-04T19:07:38.040Z,10.02
2023-03-04T19:10:07.885Z,11.93
2023-03-04T19:12:37.115Z,11.93
2023-03-04T19:15:08.676Z,10.63
2023-03-04T19:17:38.686Z,10.80
2023-03-04T19:20:10.486Z,10.40
2023-03-04T19:24:05.534Z,11.20
2023-03-04T19:26:35.275Z,10.75
2023-03-04T19:29:05.293Z,11.52
2023-03-04T19:31:34.733Z,9.60
2023-03-04T19:34:03.884Z,10.63
2023-03-04T19:36:33.568Z,10.00
2023-03-04T19:39:04.176Z,10.38
2023-03-04T19:41:33.422Z,9.80
2023-03-04T19:44:02.697Z,10.38
2023-03-04T19:46:32.425Z,10.50
2023-03-04T19:49:04.854Z,10.38
2023-03-04T19:51:34.156Z,9.70
2023-03-04T19:54:04.856Z,9.75
2023-03-04T19:56:34.089Z,9.65
2023-03-04T19:59:06.414Z,10.43
2023-03-04T20:01:39.655Z,10.02
2023-03-04T20:04:10.978Z,10.50
2023-03-04T20:06:43.773Z,10.80
2023-03-04T20:09:17.384Z,9.73
2023-03-04T20:12:02.773Z,10.25
2023-03-04T20:14:34.191Z,10.35
2023-03-04T20:17:07.324Z,11.25
2023-03-04T20:19:36.901Z,10.35
2023-03-04T20:22:07.183Z,10.52
2023-03-04T20:24:37.805Z,9.45
2023-03-04T20:27:07.135Z,9.73
2023-03-04T20:29:36.351Z,10.85
2023-03-04T20:32:05.758Z,9.50
2023-03-04T20:34:36.989Z,9.80
2023-03-04T20:37:06.258Z,10.25
2023-03-04T20:39:36.848Z,9.88
2023-03-04T20:42:06.798Z,9.50
2023-03-04T20:44:36.192Z,10.13
2023-03-04T20:47:06.916Z,9.85
2023-03-04T20:49:36.189Z,8.85
2023-03-04T20:52:06.690Z,9.25
2023-03-04T20:54:38.924Z,9.15
2023-03-04T20:57:10.914Z,9.75
2023-03-04T20:59:41.356Z,8.98
2023-03-04T21:02:14.994Z,10.35
2023-03-04T21:04:44.324Z,8.68
2023-03-04T21:07:14.095Z,9.05
2023-03-04T21:09:45.312Z,9.40
2023-03-04T21:12:14.534Z,8.90
2023-03-04T21:14:45.081Z,9.57
2023-03-04T21:17:14.548Z,8.60
2023-03-04T21:19:44.578Z,9.02
2023-03-04T21:22:16.837Z,8.60
2023-03-04T21:24:48.558Z,9.35
2023-03-04T21:27:18.132Z,8.98
2023-03-04T21:29:49.527Z,9.20
2023-03-04T21:32:25.559Z,8.63
2023-03-04T21:34:56.420Z,8.35
2023-03-04T21:37:26.686Z,8.35
2023-03-04T21:39:58.301Z,8.43
2023-03-04T21:42:27.491Z,8.18
2023-03-04T21:44:56.666Z,8.07
2023-03-04T21:47:30.333Z,8.02
2023-03-04T21:49:59.591Z,8.25
2023-03-04T21:52:29.060Z,8.20
2023-03-04T21:55:00.820Z,7.90
2023-03-04T21:57:30.217Z,7.43
2023-03-04T21:59:59.592Z,7.35
2023-03-04T22:02:28.840Z,7.20
2023-03-04T22:04:58.047Z,7.43
2023-03-04T22:07:27.328Z,7.22
2023-03-04T22:09:57.091Z,7.60
2023-03-04T22:12:27.848Z,7.03
2023-03-04T22:14:57.033Z,7.32
2023-03-04T22:17:26.292Z,7.25
2023-03-04T22:19:55.764Z,7.18
2023-03-04T22:22:24.894Z,7.50
2023-03-04T22:24:54.075Z,6.90
2023-03-04T22:27:23.350Z,6.55
2023-03-04T22:29:53.896Z,6.32
2023-03-04T22:32:24.289Z,6.75
2023-03-04T22:34:53.612Z,6.07
2023-03-04T22:37:22.870Z,5.93
2023-03-04T22:39:52.051Z,6.10
2023-03-04T22:42:21.210Z,6.53
2023-03-04T22:44:50.448Z,5.65
2023-03-04T22:47:22.668Z,6.20
2023-03-04T22:49:52.008Z,6.18
2023-03-04T22:52:21.196Z,5.85
2023-03-04T22:54:50.479Z,6.03
2023-03-04T22:57:19.811Z,6.13
2023-03-04T22:59:49.126Z,5.60
2023-03-04T23:02:18.444Z,6.25
2023-03-04T23:04:49.210Z,5.70
2023-03-04T23:07:18.685Z,6.10
2023-03-04T23:09:47.851Z,5.82
2023-03-04T23:12:17.107Z,6.05
2023-03-04T23:14:46.450Z,5.78
2023-03-04T23:17:15.785Z,5.78
2023-03-04T23:19:44.969Z,5.70
2023-03-04T23:22:15.677Z,5.68
2023-03-04T23:24:44.977Z,6.15
2023-03-04T23:27:14.198Z,6.10
2023-03-04T23:29:43.384Z,5.90
2023-03-04T23:32:12.558Z,5.55
2023-03-04T23:34:41.804Z,5.82
2023-03-04T23:37:11.071Z,5.82
2023-03-04T23:39:41.699Z,5.57
2023-03-04T23:42:10.844Z,5.85
2023-03-04T23:44:40.144Z,5.85
2023-03-04T23:47:09.656Z,5.57
2023-03-04T23:49:38.938Z,5.57
2023-03-04T23:52:08.513Z,5.55
2023-03-04T23:54:37.686Z,5.90
2023-03-04T23:57:08.506Z,5.25
2023-03-04T23:59:40.125Z,5.68
